Delta Virtual Airport Information Service

Providenciales International Airport

ICAO: MBPV Country: Turks And Caicos Islands
Latitude: 21.7736 Longitude: -72.2658
Latest Arrival : ACA1250 (CYYZ-MBPV) Latest Departure : AAL1338 (MBPV-KMIA)


WX CaptureLIVE
Data provided by noaa.gov | Fetched at 06:11:13

METAR : MBPV 271100Z 00000KT 9999 SCT012 23/20 Q1017

TAF : MBPV 271100Z 00000KT 9999 SCT012 23/20 Q1017


Runway Data for MBPV
Data provided by openaviationdata.com

Runway ID Mag Var Hdg Length Elevation Surface ILS Freq ILS Id ILS Slope
10 -9 102° 7618 ft 15 ft Asphalt -- -- --
28 -9 282° 7618 ft 15 ft Asphalt -- -- --

Providenciales International Airport, Turks And Caicos Islands
Use only for reference purposes



Not for navigational purposes.